Wetterdaten: Woche 01.08.16 - 07.08.16 (KW31)
Datum Zeit Temp. A. Feuchte A. Luftdruck Regen Wind Richtung Taupunkt Windchill Windben
01.08.2016 00:00 18,5 C 82 % 1011,4 hPa 1,3 l/m 0,2 km/h N 15,3 C 18,5 C 4,4 km/h
01.08.2016 01:00 18,9 C 82 % 1011,7 hPa 1,0 l/m 5,5 km/h N 15,7 C 18,8 C 20,9 km/h
01.08.2016 02:00 19,3 C 82 % 1011,6 hPa 1,0 l/m 4,4 km/h N 16,0 C 19,3 C 18,5 km/h
01.08.2016 03:00 19,5 C 80 % 1011,6 hPa 0,8 l/m 5,3 km/h N 16,0 C 19,3 C 16,1 km/h
01.08.2016 04:00 19,7 C 79 % 1011,6 hPa 0,5 l/m 4,9 km/h N 15,9 C 19,6 C 18,1 km/h
01.08.2016 05:00 19,7 C 78 % 1012,5 hPa 0,5 l/m 9,1 km/h N 15,8 C 18,5 C 24,5 km/h
01.08.2016 06:00 19,7 C 78 % 1013,3 hPa 0,5 l/m 13,9 km/h N 15,8 C 17,2 C 30,6 km/h
01.08.2016 07:00 20,0 C 78 % 1014,2 hPa 0,3 l/m 13,5 km/h N 15,9 C 17,6 C 29,4 km/h
01.08.2016 08:00 19,8 C 77 % 1015,1 hPa 0,0 l/m 8,4 km/h N 15,7 C 19,1 C 21,7 km/h
01.08.2016 09:00 20,1 C 73 % 1015,7 hPa 0,0 l/m 9,6 km/h N 15,2 C 18,9 C 26,1 km/h
01.08.2016 10:00 20,8 C 71 % 1016,1 hPa 0,0 l/m 7,9 km/h N 15,3 C 20,2 C 18,1 km/h
01.08.2016 11:00 21,7 C 67 % 1016,2 hPa 0,0 l/m 8,4 km/h N 15,2 C 21,0 C 22,9 km/h
01.08.2016 12:00 22,1 C 61 % 1016,6 hPa 0,0 l/m 7,8 km/h N 14,3 C 21,6 C 21,7 km/h
01.08.2016 13:00 22,4 C 60 % 1016,4 hPa 0,0 l/m 6,7 km/h N 14,2 C 22,3 C 18,2 km/h
01.08.2016 14:00 22,6 C 54 % 1016,4 hPa 0,0 l/m 7,4 km/h N 12,9 C 22,3 C 22,1 km/h
01.08.2016 15:00 23,0 C 54 % 1016,3 hPa 0,0 l/m 5,6 km/h N 13,2 C 23,0 C 16,5 km/h
01.08.2016 16:00 22,9 C 54 % 1016,3 hPa 0,0 l/m 6,0 km/h N 13,1 C 22,8 C 20,1 km/h
01.08.2016 17:00 22,5 C 60 % 1016,4 hPa 0,0 l/m 5,9 km/h N 14,4 C 22,5 C 19,7 km/h
01.08.2016 18:00 22,1 C 59 % 1016,3 hPa 0,0 l/m 5,3 km/h N 13,8 C 22,1 C 14,1 km/h
01.08.2016 19:00 21,8 C 58 % 1016,2 hPa 0,0 l/m 2,3 km/h N 13,1 C 21,8 C 11,7 km/h
01.08.2016 20:00 21,5 C 58 % 1016,6 hPa 0,0 l/m 0,8 km/h N 12,8 C 21,5 C 7,3 km/h
01.08.2016 21:00 19,9 C 65 % 1017,3 hPa 0,0 l/m 0,0 km/h N 13,1 C 19,9 C 2,0 km/h
01.08.2016 22:00 18,5 C 70 % 1017,6 hPa 0,0 l/m 0,0 km/h N 12,9 C 18,5 C 1,2 km/h
01.08.2016 23:00 17,9 C 72 % 1017,7 hPa 0,0 l/m 0,0 km/h N 12,8 C 17,9 C 0,4 km/h
02.08.2016 00:00 17,3 C 73 % 1017,9 hPa 0,0 l/m 0,0 km/h N 12,3 C 17,3 C 1,6 km/h
02.08.2016 01:00 17,1 C 72 % 1017,9 hPa 0,0 l/m 0,1 km/h N 12,1 C 17,1 C 1,2 km/h
02.08.2016 02:00 16,4 C 76 % 1017,9 hPa 0,0 l/m 0,0 km/h N 12,0 C 16,4 C 0,4 km/h
02.08.2016 03:00 15,6 C 78 % 1017,8 hPa 0,0 l/m 0,0 km/h N 11,7 C 15,6 C 0,4 km/h
02.08.2016 04:00 15,2 C 78 % 1017,8 hPa 0,0 l/m 0,0 km/h N 11,4 C 15,2 C 1,2 km/h
02.08.2016 05:00 15,0 C 78 % 1018,0 hPa 0,0 l/m 0,0 km/h N 11,2 C 15,0 C 0,4 km/h
02.08.2016 06:00 14,7 C 79 % 1018,1 hPa 0,0 l/m 0,0 km/h N 11,1 C 14,7 C 2,0 km/h
02.08.2016 07:00 15,4 C 79 % 1018,3 hPa 0,0 l/m 0,0 km/h N 11,8 C 15,4 C 0,4 km/h
02.08.2016 08:00 18,1 C 74 % 1018,4 hPa 0,0 l/m 0,3 km/h N 13,4 C 18,1 C 2,8 km/h
02.08.2016 09:00 21,7 C 61 % 1018,1 hPa 0,0 l/m 1,0 km/h N 13,7 C 21,7 C 7,2 km/h
02.08.2016 10:00 23,3 C 57 % 1017,7 hPa 0,0 l/m 0,5 km/h N 14,2 C 23,3 C 6,0 km/h
02.08.2016 11:00 24,0 C 50 % 1017,6 hPa 0,0 l/m 1,3 km/h N 12,9 C 24,0 C 8,0 km/h
02.08.2016 12:00 24,6 C 47 % 1017,1 hPa 0,0 l/m 2,8 km/h N 12,3 C 24,6 C 13,3 km/h
02.08.2016 13:00 24,7 C 44 % 1016,8 hPa 0,0 l/m 4,4 km/h N 11,7 C 24,7 C 15,3 km/h
02.08.2016 14:00 25,1 C 44 % 1016,3 hPa 0,0 l/m 4,2 km/h N 12,1 C 25,1 C 16,9 km/h
02.08.2016 15:00 25,0 C 45 % 1015,7 hPa 0,0 l/m 4,4 km/h N 12,2 C 25,0 C 18,5 km/h
02.08.2016 16:00 25,2 C 42 % 1015,2 hPa 0,0 l/m 4,8 km/h N 11,4 C 25,2 C 18,5 km/h
02.08.2016 17:00 25,4 C 42 % 1014,9 hPa 0,0 l/m 4,4 km/h N 11,6 C 25,4 C 16,1 km/h
02.08.2016 18:00 24,9 C 44 % 1014,8 hPa 0,0 l/m 4,6 km/h N 11,7 C 24,9 C 15,7 km/h
02.08.2016 19:00 24,2 C 47 % 1014,9 hPa 0,0 l/m 3,2 km/h N 12,0 C 24,2 C 12,1 km/h
02.08.2016 20:00 23,6 C 49 % 1015,0 hPa 0,0 l/m 1,4 km/h N 12,3 C 23,6 C 7,2 km/h
02.08.2016 21:00 22,6 C 56 % 1015,5 hPa 0,0 l/m 0,1 km/h N 13,4 C 22,6 C 2,4 km/h
02.08.2016 22:00 21,6 C 60 % 1016,3 hPa 0,0 l/m 3,6 km/h N 13,5 C 21,6 C 14,9 km/h
02.08.2016 23:00 20,5 C 67 % 1016,6 hPa 0,0 l/m 3,3 km/h N 14,2 C 20,5 C 12,1 km/h
03.08.2016 00:00 19,6 C 73 % 1017,0 hPa 0,0 l/m 8,6 km/h N 14,7 C 18,8 C 24,1 km/h
03.08.2016 01:00 18,8 C 78 % 1016,6 hPa 0,0 l/m 12,3 km/h N 14,8 C 16,6 C 30,2 km/h
03.08.2016 02:00 18,8 C 78 % 1016,7 hPa 0,0 l/m 5,2 km/h N 14,9 C 18,7 C 16,5 km/h
03.08.2016 03:00 19,1 C 77 % 1016,5 hPa 0,0 l/m 4,1 km/h N 14,9 C 19,1 C 17,3 km/h
03.08.2016 04:00 19,4 C 71 % 1016,5 hPa 0,0 l/m 5,9 km/h N 14,0 C 19,3 C 21,3 km/h
03.08.2016 05:00 18,9 C 74 % 1017,0 hPa 0,0 l/m 5,0 km/h N 14,1 C 18,8 C 15,3 km/h
03.08.2016 06:00 18,5 C 77 % 1017,2 hPa 0,0 l/m 4,9 km/h N 14,5 C 18,5 C 17,3 km/h
03.08.2016 07:00 18,6 C 79 % 1017,2 hPa 0,0 l/m 4,8 km/h N 14,9 C 18,4 C 16,5 km/h
03.08.2016 08:00 19,5 C 78 % 1017,1 hPa 0,0 l/m 4,9 km/h N 15,5 C 19,5 C 18,1 km/h
03.08.2016 09:00 20,9 C 74 % 1017,0 hPa 0,0 l/m 5,4 km/h N 16,1 C 20,9 C 18,5 km/h
03.08.2016 10:00 21,8 C 70 % 1016,7 hPa 0,0 l/m 5,7 km/h N 16,0 C 21,8 C 19,7 km/h
03.08.2016 11:00 23,5 C 65 % 1016,2 hPa 0,0 l/m 4,7 km/h N 16,4 C 23,5 C 16,9 km/h
03.08.2016 12:00 24,8 C 62 % 1015,7 hPa 0,0 l/m 4,9 km/h N 16,9 C 24,8 C 18,1 km/h
03.08.2016 13:00 25,7 C 58 % 1015,1 hPa 0,0 l/m 4,1 km/h N 16,7 C 25,7 C 17,3 km/h
03.08.2016 14:00 26,5 C 54 % 1014,5 hPa 0,0 l/m 6,5 km/h N 16,3 C 26,4 C 21,7 km/h
03.08.2016 15:00 26,8 C 54 % 1014,0 hPa 0,0 l/m 3,9 km/h N 16,8 C 26,8 C 16,9 km/h
03.08.2016 16:00 27,3 C 54 % 1013,3 hPa 0,0 l/m 5,7 km/h N 17,0 C 27,2 C 19,3 km/h
03.08.2016 17:00 27,6 C 51 % 1013,1 hPa 0,0 l/m 2,2 km/h N 16,4 C 27,6 C 11,7 km/h
03.08.2016 18:00 27,8 C 51 % 1012,9 hPa 0,0 l/m 0,8 km/h N 16,6 C 27,8 C 6,0 km/h
03.08.2016 19:00 27,5 C 54 % 1012,9 hPa 0,0 l/m 0,5 km/h N 17,3 C 27,5 C 4,8 km/h
03.08.2016 20:00 25,8 C 61 % 1013,0 hPa 0,0 l/m 0,1 km/h N 17,6 C 25,8 C 2,4 km/h
03.08.2016 21:00 23,9 C 68 % 1013,4 hPa 0,0 l/m 0,1 km/h N 17,5 C 23,9 C 2,4 km/h
03.08.2016 22:00 22,1 C 73 % 1013,5 hPa 0,0 l/m 0,0 km/h N 16,9 C 22,1 C 0,0 km/h
03.08.2016 23:00 20,6 C 78 % 1013,4 hPa 0,0 l/m 0,0 km/h N 16,5 C 20,6 C 0,4 km/h
04.08.2016 00:00 19,6 C 81 % 1013,3 hPa 0,0 l/m 0,0 km/h N 16,1 C 19,6 C 0,0 km/h
04.08.2016 01:00 19,1 C 81 % 1013,2 hPa 0,0 l/m 0,2 km/h N 15,8 C 19,1 C 3,6 km/h
04.08.2016 02:00 18,6 C 82 % 1013,2 hPa 0,0 l/m 0,0 km/h N 15,5 C 18,6 C 0,8 km/h
04.08.2016 03:00 18,2 C 82 % 1013,2 hPa 0,0 l/m 0,1 km/h N 15,1 C 18,2 C 2,0 km/h
04.08.2016 04:00 17,7 C 82 % 1013,4 hPa 0,0 l/m 0,0 km/h N 14,6 C 17,7 C 0,0 km/h
04.08.2016 05:00 17,3 C 82 % 1013,5 hPa 0,0 l/m 0,0 km/h N 14,2 C 17,3 C 0,0 km/h
04.08.2016 06:00 17,5 C 82 % 1013,6 hPa 0,0 l/m 0,0 km/h N 14,4 C 17,5 C 0,0 km/h
04.08.2016 07:00 18,7 C 82 % 1013,8 hPa 0,0 l/m 0,0 km/h N 15,5 C 18,7 C 0,4 km/h
04.08.2016 08:00 20,5 C 82 % 1013,9 hPa 0,0 l/m 0,0 km/h N 17,3 C 20,5 C 1,6 km/h
04.08.2016 09:00 23,2 C 77 % 1013,9 hPa 0,0 l/m 0,0 km/h N 18,9 C 23,2 C 1,6 km/h
04.08.2016 10:00 24,8 C 74 % 1014,0 hPa 0,0 l/m 0,1 km/h N 19,9 C 24,8 C 3,6 km/h
04.08.2016 11:00 27,7 C 65 % 1013,7 hPa 0,0 l/m 0,4 km/h N 20,5 C 27,7 C 4,0 km/h
04.08.2016 12:00 29,5 C 60 % 1013,2 hPa 0,0 l/m 0,8 km/h N 20,8 C 29,5 C 8,0 km/h
04.08.2016 13:00 30,5 C 56 % 1012,7 hPa 0,0 l/m 1,3 km/h N 20,6 C 30,5 C 11,2 km/h
04.08.2016 14:00 31,8 C 50 % 1012,2 hPa 0,0 l/m 2,0 km/h N 19,9 C 31,8 C 11,3 km/h
04.08.2016 15:00 31,0 C 52 % 1011,5 hPa 0,0 l/m 2,0 km/h N 20,0 C 31,0 C 8,9 km/h
04.08.2016 16:00 30,9 C 47 % 1010,8 hPa 0,0 l/m 3,0 km/h N 18,2 C 30,9 C 10,5 km/h
04.08.2016 17:00 30,6 C 46 % 1010,5 hPa 0,0 l/m 4,0 km/h N 17,4 C 30,6 C 12,1 km/h
04.08.2016 18:00 30,5 C 46 % 1010,1 hPa 0,0 l/m 4,7 km/h N 17,6 C 30,5 C 18,9 km/h
04.08.2016 19:00 29,9 C 47 % 1010,1 hPa 0,0 l/m 4,0 km/h N 17,2 C 29,9 C 13,7 km/h
04.08.2016 20:00 28,1 C 49 % 1010,2 hPa 0,0 l/m 3,1 km/h N 16,5 C 28,1 C 12,9 km/h
04.08.2016 21:00 26,4 C 58 % 1010,6 hPa 0,0 l/m 1,8 km/h N 17,3 C 26,4 C 8,9 km/h
04.08.2016 22:00 25,1 C 64 % 1010,4 hPa 0,0 l/m 1,9 km/h N 17,9 C 25,1 C 8,4 km/h
04.08.2016 23:00 24,0 C 70 % 1010,1 hPa 0,0 l/m 0,4 km/h N 18,0 C 24,0 C 5,6 km/h
05.08.2016 00:00 23,3 C 72 % 1009,3 hPa 0,0 l/m 0,8 km/h N 17,9 C 23,3 C 7,2 km/h
05.08.2016 01:00 23,1 C 73 % 1008,9 hPa 0,0 l/m 0,9 km/h N 17,9 C 23,1 C 6,4 km/h
05.08.2016 02:00 22,5 C 74 % 1008,5 hPa 0,0 l/m 0,2 km/h N 17,6 C 22,5 C 4,4 km/h
05.08.2016 03:00 22,2 C 75 % 1008,1 hPa 0,0 l/m 1,8 km/h N 17,6 C 22,2 C 8,9 km/h
05.08.2016 04:00 21,8 C 77 % 1007,8 hPa 0,0 l/m 1,2 km/h N 17,5 C 21,8 C 8,8 km/h
05.08.2016 05:00 20,7 C 79 % 1008,9 hPa 0,0 l/m 0,1 km/h N 16,8 C 20,7 C 1,6 km/h
05.08.2016 06:00 20,1 C 81 % 1009,7 hPa 0,0 l/m 0,1 km/h N 16,7 C 20,1 C 1,6 km/h
05.08.2016 07:00 20,8 C 76 % 1010,2 hPa 0,0 l/m 2,7 km/h N 16,3 C 20,8 C 13,7 km/h
05.08.2016 08:00 21,9 C 70 % 1010,4 hPa 0,0 l/m 2,3 km/h N 16,2 C 21,9 C 12,9 km/h
05.08.2016 09:00 22,6 C 67 % 1010,8 hPa 0,0 l/m 3,4 km/h N 16,2 C 22,6 C 14,1 km/h
05.08.2016 10:00 23,3 C 66 % 1011,1 hPa 0,0 l/m 6,5 km/h N 16,5 C 23,1 C 20,1 km/h
05.08.2016 11:00 23,3 C 68 % 1011,2 hPa 0,0 l/m 8,1 km/h N 16,9 C 22,8 C 23,3 km/h
05.08.2016 12:00 23,0 C 69 % 1011,4 hPa 0,0 l/m 5,5 km/h N 17,1 C 22,9 C 18,9 km/h
05.08.2016 13:00 22,8 C 70 % 1011,8 hPa 0,0 l/m 7,7 km/h N 16,9 C 22,3 C 20,9 km/h
05.08.2016 14:00 21,6 C 72 % 1012,5 hPa 0,0 l/m 5,8 km/h N 16,3 C 21,6 C 20,5 km/h
05.08.2016 15:00 20,3 C 77 % 1012,8 hPa 0,0 l/m 5,8 km/h N 16,0 C 20,1 C 18,5 km/h
05.08.2016 16:00 19,5 C 78 % 1013,1 hPa 0,0 l/m 11,5 km/h N 15,6 C 17,6 C 27,4 km/h
05.08.2016 17:00 18,5 C 80 % 1013,7 hPa 0,3 l/m 10,8 km/h N 15,0 C 16,8 C 27,0 km/h
05.08.2016 18:00 17,4 C 82 % 1014,3 hPa 1,0 l/m 11,4 km/h N 14,3 C 15,3 C 29,4 km/h
05.08.2016 19:00 17,1 C 82 % 1015,0 hPa 1,3 l/m 6,9 km/h N 14,0 C 16,6 C 21,7 km/h
05.08.2016 20:00 17,0 C 82 % 1016,1 hPa 1,3 l/m 3,8 km/h N 13,9 C 17,0 C 19,7 km/h
05.08.2016 21:00 16,8 C 82 % 1016,6 hPa 0,8 l/m 7,0 km/h N 13,7 C 16,3 C 19,7 km/h
05.08.2016 22:00 16,8 C 82 % 1017,0 hPa 1,0 l/m 9,8 km/h N 13,7 C 15,2 C 24,9 km/h
05.08.2016 23:00 16,6 C 81 % 1017,7 hPa 1,0 l/m 12,3 km/h N 13,4 C 14,1 C 26,5 km/h
06.08.2016 00:00 16,4 C 81 % 1018,1 hPa 0,8 l/m 10,5 km/h N 13,1 C 14,5 C 26,1 km/h
06.08.2016 01:00 16,5 C 80 % 1018,5 hPa 0,5 l/m 11,0 km/h N 13,0 C 14,3 C 24,9 km/h
06.08.2016 02:00 16,3 C 80 % 1019,2 hPa 0,5 l/m 12,7 km/h N 12,9 C 13,6 C 28,6 km/h
06.08.2016 03:00 16,2 C 80 % 1019,5 hPa 0,5 l/m 11,1 km/h N 12,7 C 14,0 C 26,1 km/h
06.08.2016 04:00 16,1 C 80 % 1019,3 hPa 0,3 l/m 9,0 km/h N 12,6 C 14,8 C 24,5 km/h
06.08.2016 05:00 16,1 C 80 % 1019,5 hPa 0,3 l/m 10,5 km/h N 12,6 C 14,1 C 24,9 km/h
06.08.2016 06:00 16,0 C 80 % 1019,8 hPa 0,5 l/m 11,0 km/h N 12,5 C 13,8 C 26,6 km/h
06.08.2016 07:00 16,5 C 79 % 1020,4 hPa 0,3 l/m 12,5 km/h N 12,9 C 13,9 C 25,3 km/h
06.08.2016 08:00 17,0 C 78 % 1020,8 hPa 0,3 l/m 14,8 km/h N 13,0 C 13,6 C 33,4 km/h
06.08.2016 09:00 18,4 C 76 % 1021,2 hPa 0,0 l/m 13,0 km/h N 14,0 C 15,9 C 28,6 km/h
06.08.2016 10:00 19,6 C 74 % 1021,4 hPa 0,0 l/m 11,1 km/h N 14,8 C 17,9 C 30,2 km/h
06.08.2016 11:00 20,5 C 71 % 1021,8 hPa 0,0 l/m 10,7 km/h N 15,1 C 19,0 C 25,8 km/h
06.08.2016 12:00 21,1 C 70 % 1021,6 hPa 0,0 l/m 11,3 km/h N 15,3 C 19,5 C 25,3 km/h
06.08.2016 13:00 22,1 C 67 % 1021,5 hPa 0,0 l/m 10,3 km/h N 15,6 C 20,9 C 26,9 km/h
06.08.2016 14:00 21,7 C 67 % 1021,4 hPa 0,0 l/m 11,0 km/h N 15,2 C 20,2 C 27,0 km/h
06.08.2016 15:00 21,6 C 67 % 1021,5 hPa 0,0 l/m 10,5 km/h N 15,1 C 20,2 C 27,0 km/h
06.08.2016 16:00 21,4 C 66 % 1021,6 hPa 0,0 l/m 13,4 km/h N 14,7 C 19,3 C 30,2 km/h
06.08.2016 17:00 20,9 C 67 % 1021,8 hPa 0,0 l/m 10,8 km/h N 14,4 C 19,4 C 27,4 km/h
06.08.2016 18:00 21,1 C 66 % 1022,1 hPa 0,0 l/m 11,4 km/h N 14,5 C 19,6 C 27,8 km/h
06.08.2016 19:00 21,1 C 65 % 1022,3 hPa 0,0 l/m 10,3 km/h N 14,2 C 19,8 C 26,5 km/h
06.08.2016 20:00 20,3 C 67 % 1022,8 hPa 0,0 l/m 8,6 km/h N 13,9 C 19,4 C 24,5 km/h
06.08.2016 21:00 20,1 C 69 % 1023,3 hPa 0,0 l/m 10,6 km/h N 14,2 C 18,6 C 25,0 km/h
06.08.2016 22:00 20,2 C 69 % 1023,8 hPa 0,0 l/m 11,2 km/h N 14,3 C 18,5 C 29,0 km/h
06.08.2016 23:00 19,8 C 70 % 1024,4 hPa 0,0 l/m 10,6 km/h N 14,2 C 18,3 C 24,9 km/h
07.08.2016 00:00 19,3 C 72 % 1024,8 hPa 0,0 l/m 8,9 km/h N 14,0 C 18,3 C 22,1 km/h
07.08.2016 01:00 19,3 C 71 % 1025,0 hPa 0,0 l/m 9,1 km/h N 13,8 C 18,2 C 22,5 km/h
07.08.2016 02:00 18,5 C 73 % 1025,4 hPa 0,0 l/m 6,3 km/h N 13,5 C 18,3 C 19,3 km/h
07.08.2016 03:00 18,0 C 75 % 1025,5 hPa 0,0 l/m 6,4 km/h N 13,3 C 17,5 C 18,5 km/h
07.08.2016 04:00 17,5 C 75 % 1025,6 hPa 0,0 l/m 2,9 km/h N 13,0 C 17,5 C 12,5 km/h
07.08.2016 05:00 17,0 C 76 % 1025,8 hPa 0,0 l/m 0,3 km/h N 12,8 C 17,0 C 4,0 km/h
07.08.2016 07:00 18,2 C 75 % 1026,6 hPa 0,0 l/m 3,0 km/h N 13,7 C 18,2 C 10,5 km/h
07.08.2016 08:00 19,3 C 73 % 1026,9 hPa 0,0 l/m 4,8 km/h N 14,2 C 19,3 C 14,1 km/h
07.08.2016 09:00 20,3 C 69 % 1027,0 hPa 0,0 l/m 6,6 km/h N 14,4 C 19,9 C 19,3 km/h
07.08.2016 10:00 21,4 C 63 % 1026,9 hPa 0,0 l/m 5,8 km/h N 14,0 C 21,4 C 18,9 km/h
07.08.2016 11:00 22,1 C 60 % 1026,5 hPa 0,0 l/m 6,8 km/h N 13,9 C 22,0 C 22,9 km/h
07.08.2016 12:00 22,9 C 57 % 1026,0 hPa 0,0 l/m 8,0 km/h N 13,8 C 22,4 C 20,9 km/h
07.08.2016 13:00 23,5 C 56 % 1025,6 hPa 0,0 l/m 6,9 km/h N 14,2 C 23,4 C 26,1 km/h
07.08.2016 14:00 24,3 C 51 % 1025,3 hPa 0,0 l/m 6,4 km/h N 13,5 C 24,2 C 20,1 km/h
07.08.2016 15:00 24,5 C 51 % 1024,9 hPa 0,0 l/m 6,3 km/h N 13,7 C 24,2 C 20,5 km/h
07.08.2016 16:00 24,5 C 51 % 1024,4 hPa 0,0 l/m 5,9 km/h N 13,6 C 24,4 C 19,7 km/h
07.08.2016 17:00 24,6 C 49 % 1024,0 hPa 0,0 l/m 6,0 km/h N 13,1 C 24,4 C 20,9 km/h
07.08.2016 18:00 24,6 C 50 % 1023,7 hPa 0,0 l/m 3,9 km/h N 13,3 C 24,6 C 14,5 km/h
07.08.2016 19:00 24,3 C 53 % 1023,3 hPa 0,0 l/m 3,3 km/h N 14,0 C 24,3 C 11,3 km/h
07.08.2016 20:00 22,8 C 57 % 1023,2 hPa 0,0 l/m 0,7 km/h N 13,7 C 22,8 C 5,6 km/h
07.08.2016 21:00 21,7 C 57 % 1023,4 hPa 0,0 l/m 3,9 km/h N 12,9 C 21,7 C 12,1 km/h
07.08.2016 22:00 21,4 C 57 % 1023,4 hPa 0,0 l/m 1,6 km/h N 12,5 C 21,4 C 9,7 km/h
07.08.2016 23:00 20,3 C 61 % 1023,3 hPa 0,0 l/m 0,1 km/h N 12,6 C 20,3 C 2,4 km/h
Min-Datum _ 02.08.16 02.08.16 05.08.16 - 01.08.16 - 02.08.16 06.08.16 01.08.16
_ Min-Zeit 06:15 12:45 04:15 - 20:45 - 12:45 08:15 21:00
Minimum _ 14,6 C 41 % 1007,7 hPa - 0,0 km/h - 10,4 C 13,1 C 0,0 km/h
Max-Datum _ 04.08.16 01.08.16 07.08.16 01.08.16 01.08.16 - 04.08.16 04.08.16 06.08.16
_ Max-Zeit 14:45 00:00 09:30 00:45 06:00 - 12:45 14:30 08:15
Maximum _ 32,3 C 82 % 1027,1 hPa 1,3 l/m 16,9 km/h
N
- 21,7 C 32,2 C 38,6 km/h
N
Durchschnitt _ 21,4 C 68 % 1016,8 hPa #16,6 l/m 4,9 km/h N 14,8 C 20,9 C 15,1 km/h